Terminal Aerodrome Forecast
Issued by NWS Sterling, VA

Current Version | Previous Version | Graphics & Text | Print | Product List | Glossary On
Versions: 1 2 3 4 5 6 7 8 9 10 11 12 13 14 15 16 17
000
FTUS41 KLWX 211100
TAFMRB
TAF
KMRB 211128Z 2112/2212 30003KT 1/4SM FG VV002
     FM211300 VRB03KT 1SM BR SCT002 BKN008
     FM211400 00000KT P6SM FEW008 SCT015
     FM211700 VRB03KT P6SM BKN030 BKN110
     FM211800 25004KT P6SM VCTS SCT030CB BKN130
     FM220000 VRB03KT P6SM SCT030 BKN200
     FM220800 00000KT 4SM BR BKN070=

USA.gov is the U.S. government's official web portal to all federal, state and local government web resources and services.